createdAt,value
2019-05-14T00:00:36.561Z,3.13
2019-05-14T00:01:43.390Z,2.77
2019-05-14T00:02:52.050Z,3.20
2019-05-14T00:03:59.390Z,2.47
2019-05-14T00:05:07.736Z,3.07
2019-05-14T00:06:14.793Z,2.77
2019-05-14T00:07:22.473Z,2.70
2019-05-14T00:08:31.436Z,2.80
2019-05-14T00:09:41.264Z,3.10
2019-05-14T00:10:47.956Z,3.47
2019-05-14T00:11:55.792Z,3.03
2019-05-14T00:13:02.619Z,2.40
2019-05-14T00:14:11.607Z,2.97
2019-05-14T00:15:21.498Z,3.10
2019-05-14T00:16:28.300Z,2.50
2019-05-14T00:17:35.861Z,3.33
2019-05-14T00:18:43.337Z,2.90
2019-05-14T00:20:05.880Z,3.17
2019-05-14T00:21:01.451Z,3.00
2019-05-14T00:22:07.702Z,2.70
2019-05-14T00:23:15.489Z,2.83
2019-05-14T00:24:22.250Z,3.37
2019-05-14T00:25:31.278Z,3.03
2019-05-14T00:26:38.592Z,2.53
2019-05-14T00:27:46.067Z,2.77
2019-05-14T00:28:52.817Z,3.63
2019-05-14T00:30:02.413Z,3.20
2019-05-14T00:31:11.967Z,3.70
2019-05-14T00:32:18.731Z,2.80
2019-05-14T00:33:25.954Z,3.87
2019-05-14T00:34:33.469Z,3.77
2019-05-14T00:35:41.324Z,3.27
2019-05-14T00:36:49.222Z,3.47
2019-05-14T00:37:55.964Z,4.00
2019-05-14T00:39:04.307Z,3.10
2019-05-14T00:40:11.923Z,3.00
2019-05-14T00:41:21.503Z,3.60
2019-05-14T00:42:28.520Z,3.13
2019-05-14T00:43:36.105Z,3.37
2019-05-14T00:44:54.478Z,3.93
2019-05-14T00:45:52.494Z,3.67
2019-05-14T00:46:59.235Z,3.27
2019-05-14T00:48:07.062Z,2.90
2019-05-14T00:49:14.129Z,3.50
2019-05-14T00:50:21.764Z,3.50
2019-05-14T00:51:28.934Z,3.33
2019-05-14T00:52:36.474Z,4.27
2019-05-14T00:53:43.230Z,3.20
2019-05-14T00:54:52.177Z,3.60
2019-05-14T00:56:01.908Z,3.27
2019-05-14T00:57:11.576Z,4.10
2019-05-14T00:58:17.832Z,3.30
2019-05-14T00:59:25.643Z,3.27
2019-05-14T01:00:32.739Z,3.17
2019-05-14T01:01:42.262Z,3.37
2019-05-14T01:02:48.703Z,3.17
2019-05-14T01:03:56.709Z,3.90
2019-05-14T01:05:04.471Z,3.47
2019-05-14T01:06:12.312Z,3.97
2019-05-14T01:07:21.137Z,3.70
2019-05-14T01:08:28.595Z,3.70
2019-05-14T01:09:35.391Z,3.73
2019-05-14T01:10:43.179Z,3.97
2019-05-14T01:11:51.262Z,3.80
2019-05-14T01:13:01.156Z,3.80
2019-05-14T01:14:07.771Z,3.67
2019-05-14T01:15:15.529Z,4.20
2019-05-14T01:16:22.520Z,3.60
2019-05-14T01:17:31.490Z,4.80
2019-05-14T01:18:38.578Z,3.47
2019-05-14T01:19:46.093Z,4.00
2019-05-14T01:20:53.247Z,4.13
2019-05-14T01:22:01.750Z,4.00
2019-05-14T01:23:08.679Z,3.90
2019-05-14T01:24:16.158Z,4.50
2019-05-14T01:25:23.865Z,4.30
2019-05-14T01:26:31.375Z,3.93
2019-05-14T01:27:38.550Z,4.53
2019-05-14T01:28:46.077Z,4.97
2019-05-14T01:29:53.026Z,4.20
2019-05-14T01:31:01.227Z,3.60
2019-05-14T01:32:08.724Z,4.00
2019-05-14T01:33:16.202Z,4.00
2019-05-14T01:34:22.967Z,4.20
2019-05-14T01:35:31.545Z,5.03
2019-05-14T01:36:41.190Z,4.20
2019-05-14T01:37:48.437Z,3.53
2019-05-14T01:38:55.626Z,4.80
2019-05-14T01:40:03.739Z,3.90
2019-05-14T01:41:11.820Z,4.37
2019-05-14T01:42:21.613Z,4.10
2019-05-14T01:43:28.708Z,3.93
2019-05-14T01:44:37.113Z,4.40
2019-05-14T01:45:44.221Z,4.37
2019-05-14T01:46:52.008Z,4.20
2019-05-14T01:48:00.999Z,4.47
2019-05-14T01:49:07.935Z,4.90
2019-05-14T01:50:15.757Z,4.27
2019-05-14T01:51:23.386Z,5.30
2019-05-14T01:52:31.801Z,4.60
2019-05-14T01:53:41.490Z,4.50
2019-05-14T01:54:47.893Z,4.77
2019-05-14T01:55:55.500Z,4.70
2019-05-14T01:57:02.327Z,4.53
2019-05-14T01:58:11.498Z,5.43
2019-05-14T01:59:18.482Z,4.20
2019-05-14T02:00:26.571Z,5.00
2019-05-14T02:01:34.269Z,4.93
2019-05-14T02:02:41.969Z,4.83
2019-05-14T02:03:48.767Z,5.07
2019-05-14T02:04:56.321Z,4.90
2019-05-14T02:06:03.077Z,4.87
2019-05-14T02:07:11.568Z,4.57
2019-05-14T02:08:21.298Z,4.80
2019-05-14T02:09:28.521Z,4.60
2019-05-14T02:10:35.267Z,4.60
2019-05-14T02:11:43.095Z,5.50
2019-05-14T02:12:51.600Z,4.20
2019-05-14T02:13:59.243Z,4.70
2019-05-14T02:15:06.247Z,5.00
2019-05-14T02:16:14.089Z,5.63
2019-05-14T02:17:21.413Z,4.97
2019-05-14T02:18:31.128Z,4.80
2019-05-14T02:19:38.173Z,4.73
2019-05-14T02:20:46.573Z,4.23
2019-05-14T02:21:53.334Z,5.60
2019-05-14T02:23:01.603Z,4.33
2019-05-14T02:24:08.590Z,5.03
2019-05-14T02:25:16.666Z,4.80
2019-05-14T02:26:23.767Z,4.73
2019-05-14T02:27:34.888Z,6.07
2019-05-14T02:28:42.006Z,4.90
2019-05-14T02:29:51.660Z,5.43
2019-05-14T02:31:02.748Z,5.20
2019-05-14T02:32:10.433Z,5.30
2019-05-14T02:33:19.096Z,5.20
2019-05-14T02:34:25.540Z,5.90
2019-05-14T02:35:32.331Z,4.93
2019-05-14T02:36:40.293Z,5.30
2019-05-14T02:37:50.211Z,5.80
2019-05-14T02:39:00.120Z,5.23
2019-05-14T02:40:09.617Z,5.10
2019-05-14T02:41:19.264Z,5.80
2019-05-14T02:42:24.439Z,5.30
2019-05-14T02:43:32.033Z,5.93
2019-05-14T02:44:40.904Z,5.57
2019-05-14T02:46:02.123Z,6.00
2019-05-14T02:46:59.183Z,4.70
2019-05-14T02:48:09.441Z,6.50
2019-05-14T02:49:14.681Z,5.50
2019-05-14T02:50:22.566Z,5.77
2019-05-14T02:51:30.183Z,5.40
2019-05-14T02:52:40.191Z,5.50
2019-05-14T02:53:49.585Z,5.97
2019-05-14T02:54:55.901Z,5.53
2019-05-14T02:56:02.789Z,5.63
2019-05-14T02:57:10.995Z,6.37
2019-05-14T02:58:20.622Z,6.00
2019-05-14T02:59:30.177Z,5.33
2019-05-14T03:00:35.896Z,6.53
2019-05-14T03:01:43.363Z,6.13
2019-05-14T03:02:50.124Z,5.97
2019-05-14T03:03:59.868Z,6.77
2019-05-14T03:05:09.539Z,6.07
2019-05-14T03:06:16.033Z,6.43
2019-05-14T03:07:22.871Z,6.37
2019-05-14T03:08:31.149Z,5.13
2019-05-14T03:09:40.303Z,5.97
2019-05-14T03:10:50.209Z,6.23
2019-05-14T03:11:59.310Z,6.67
2019-05-14T03:13:05.742Z,5.90
2019-05-14T03:14:12.491Z,5.00
2019-05-14T03:15:20.338Z,5.70
2019-05-14T03:16:32.584Z,5.13
2019-05-14T03:17:40.047Z,5.90
2019-05-14T03:18:45.742Z,6.53
2019-05-14T03:19:53.435Z,6.13
2019-05-14T03:21:01.217Z,6.43
2019-05-14T03:22:10.116Z,7.23
2019-05-14T03:23:19.629Z,5.73
2019-05-14T03:24:28.860Z,6.53
2019-05-14T03:25:35.432Z,5.70
2019-05-14T03:26:42.941Z,5.47
2019-05-14T03:27:50.351Z,5.55
2019-05-14T03:29:00.093Z,5.73
2019-05-14T03:30:12.650Z,5.70
2019-05-14T03:31:22.135Z,5.87
2019-05-14T03:32:25.568Z,6.07
2019-05-14T03:33:34.429Z,5.40
2019-05-14T03:34:43.767Z,5.60
2019-05-14T03:35:58.851Z,6.40
2019-05-14T03:37:03.171Z,5.97
2019-05-14T03:38:09.829Z,6.07
2019-05-14T03:39:19.112Z,6.20
2019-05-14T03:40:29.157Z,5.80
2019-05-14T03:41:34.678Z,5.40
2019-05-14T03:42:42.577Z,5.77
2019-05-14T03:43:49.730Z,6.70
2019-05-14T03:44:59.770Z,6.43
2019-05-14T03:46:09.467Z,9.23
2019-05-14T03:47:19.386Z,7.37
2019-05-14T03:48:25.098Z,6.53
2019-05-14T03:49:32.886Z,7.07
2019-05-14T03:50:39.981Z,5.70
2019-05-14T03:51:49.725Z,5.00
2019-05-14T03:52:59.485Z,5.87
2019-05-14T03:54:11.333Z,5.73
2019-05-14T03:55:14.723Z,5.47
2019-05-14T03:56:22.527Z,5.70
2019-05-14T03:57:29.430Z,6.10
2019-05-14T03:58:39.315Z,6.27
2019-05-14T03:59:49.598Z,5.35
2019-05-14T04:01:03.030Z,6.73
2019-05-14T04:02:11.739Z,7.13
2019-05-14T04:03:20.000Z,7.27
2019-05-14T04:04:29.874Z,8.97
2019-05-14T04:05:40.070Z,8.63
2019-05-14T04:06:49.612Z,6.80
2019-05-14T04:08:00.096Z,6.13
2019-05-14T04:09:09.649Z,6.10
2019-05-14T04:10:19.493Z,5.97
2019-05-14T04:11:29.624Z,6.20
2019-05-14T04:12:40.488Z,6.60
2019-05-14T04:13:52.505Z,6.40
2019-05-14T04:15:04.348Z,6.30
2019-05-14T04:16:14.707Z,6.57
2019-05-14T04:17:33.637Z,6.20
2019-05-14T04:18:40.186Z,6.30
2019-05-14T04:19:51.168Z,6.03
2019-05-14T04:20:59.808Z,6.57
2019-05-14T04:22:10.238Z,6.10
2019-05-14T04:23:19.850Z,6.63
2019-05-14T04:24:36.443Z,5.90
2019-05-14T04:25:42.294Z,5.80
2019-05-14T04:27:02.238Z,5.80
2019-05-14T04:28:04.479Z,5.60
2019-05-14T04:29:19.435Z,5.67
2019-05-14T04:30:24.697Z,5.50
2019-05-14T04:31:34.376Z,5.60
2019-05-14T04:32:43.539Z,6.00
2019-05-14T04:33:53.211Z,5.70
2019-05-14T04:35:01.632Z,5.87
2019-05-14T04:36:10.100Z,4.70
2019-05-14T04:37:20.047Z,5.50
2019-05-14T04:38:29.947Z,5.43
2019-05-14T04:39:39.271Z,5.33
2019-05-14T04:40:45.775Z,5.97
2019-05-14T04:41:52.961Z,5.60
2019-05-14T04:43:00.490Z,6.33
2019-05-14T04:44:09.739Z,5.47
2019-05-14T04:45:19.684Z,5.60
2019-05-14T04:46:26.108Z,4.90
2019-05-14T04:47:37.590Z,4.57
2019-05-14T04:48:43.844Z,5.07
2019-05-14T04:49:52.134Z,5.10
2019-05-14T04:51:00.547Z,5.50
2019-05-14T04:52:10.116Z,4.50
2019-05-14T04:53:19.535Z,5.47
2019-05-14T04:54:29.874Z,5.00
2019-05-14T04:55:34.854Z,5.03
2019-05-14T04:56:42.798Z,6.47
2019-05-14T04:57:50.400Z,5.90
2019-05-14T04:58:59.711Z,6.53
2019-05-14T05:00:07.084Z,5.80
2019-05-14T05:01:16.364Z,6.50
2019-05-14T05:02:24.850Z,5.60
2019-05-14T05:03:32.661Z,6.30
2019-05-14T05:04:41.093Z,5.87
2019-05-14T05:05:49.940Z,6.17
2019-05-14T05:06:59.287Z,6.07
2019-05-14T05:08:09.025Z,6.30
2019-05-14T05:09:14.977Z,5.70
2019-05-14T05:10:22.507Z,5.80
2019-05-14T05:11:29.528Z,5.57
2019-05-14T05:12:38.715Z,6.30
2019-05-14T05:13:48.717Z,5.90
2019-05-14T05:14:58.465Z,6.50
2019-05-14T05:16:04.529Z,5.33
2019-05-14T05:17:12.833Z,6.27
2019-05-14T05:18:19.790Z,5.77
2019-05-14T05:19:29.053Z,6.23
2019-05-14T05:20:39.240Z,5.50
2019-05-14T05:21:48.097Z,5.83
2019-05-14T05:22:55.088Z,6.90
2019-05-14T05:24:02.564Z,5.50
2019-05-14T05:25:09.527Z,5.93
2019-05-14T05:26:18.451Z,5.00
2019-05-14T05:27:25.444Z,5.30
2019-05-14T05:28:33.140Z,6.20
2019-05-14T05:29:41.839Z,6.53
2019-05-14T05:30:49.470Z,5.53
2019-05-14T05:31:59.014Z,4.83
2019-05-14T05:33:06.064Z,6.73
2019-05-14T05:34:12.948Z,6.50
2019-05-14T05:35:20.833Z,7.10
2019-05-14T05:36:29.026Z,5.57
2019-05-14T05:37:38.476Z,5.80
2019-05-14T05:38:45.445Z,5.47
2019-05-14T05:39:52.976Z,5.67
2019-05-14T05:41:00.481Z,5.50
2019-05-14T05:42:09.381Z,5.53
2019-05-14T05:43:19.009Z,5.00
2019-05-14T05:44:28.535Z,5.57
2019-05-14T05:45:34.901Z,4.93
2019-05-14T05:46:43.283Z,5.30
2019-05-14T05:47:57.770Z,5.70
2019-05-14T05:49:00.417Z,5.70
2019-05-14T05:50:08.807Z,5.73
2019-05-14T05:51:18.665Z,5.83
2019-05-14T05:52:25.157Z,5.77
2019-05-14T05:53:33.448Z,5.80
2019-05-14T05:54:40.725Z,4.90
2019-05-14T05:55:49.208Z,4.53
2019-05-14T05:56:58.140Z,4.93
2019-05-14T05:58:05.888Z,4.67
2019-05-14T05:59:13.032Z,4.53
2019-05-14T06:00:53.741Z,5.00
2019-05-14T06:02:00.818Z,5.23
2019-05-14T06:03:10.687Z,5.87
2019-05-14T06:04:18.255Z,5.07
2019-05-14T06:05:25.942Z,5.57
2019-05-14T06:06:32.986Z,5.57
2019-05-14T06:07:40.479Z,5.20
2019-05-14T06:08:49.173Z,5.00
2019-05-14T06:09:58.637Z,5.07
2019-05-14T06:11:05.314Z,4.47
2019-05-14T06:12:12.999Z,4.30
2019-05-14T06:13:19.836Z,4.57
2019-05-14T06:14:29.170Z,5.07
2019-05-14T06:15:45.676Z,5.60
2019-05-14T06:16:45.505Z,3.93
2019-05-14T06:17:52.565Z,3.47
2019-05-14T06:19:00.445Z,3.87
2019-05-14T06:20:08.611Z,4.37
2019-05-14T06:21:18.710Z,4.20
2019-05-14T06:22:25.083Z,4.70
2019-05-14T06:23:32.991Z,4.70
2019-05-14T06:24:39.780Z,4.40
2019-05-14T06:25:49.134Z,4.00
2019-05-14T06:26:58.375Z,4.23
2019-05-14T06:28:04.985Z,4.23
2019-05-14T06:29:12.153Z,5.33
2019-05-14T06:30:36.251Z,4.60
2019-05-14T06:31:43.041Z,3.90
2019-05-14T06:32:51.322Z,4.03
2019-05-14T06:33:59.124Z,3.57
2019-05-14T06:35:08.795Z,4.90
2019-05-14T06:36:19.110Z,3.80
2019-05-14T06:37:25.221Z,3.60
2019-05-14T06:38:32.739Z,3.73
2019-05-14T06:39:40.331Z,3.90
2019-05-14T06:40:48.918Z,3.80
2019-05-14T06:41:58.520Z,4.20
2019-05-14T06:43:05.151Z,3.70
2019-05-14T06:44:12.623Z,4.77
2019-05-14T06:45:20.127Z,3.60
2019-05-14T06:46:28.409Z,4.00
2019-05-14T06:47:35.316Z,3.90
2019-05-14T06:48:42.798Z,3.57
2019-05-14T06:49:49.553Z,3.50
2019-05-14T06:50:58.298Z,3.07
2019-05-14T06:52:08.454Z,3.53
2019-05-14T06:53:15.313Z,3.50
2019-05-14T06:54:22.044Z,3.40
2019-05-14T06:55:29.523Z,3.10
2019-05-14T06:56:38.518Z,4.33
2019-05-14T06:57:47.883Z,3.33
2019-05-14T06:58:54.074Z,3.40
2019-05-14T07:00:01.911Z,3.30
2019-05-14T07:01:09.627Z,3.97
2019-05-14T07:02:19.397Z,3.17
2019-05-14T07:03:28.104Z,4.60
2019-05-14T07:04:39.210Z,3.80
2019-05-14T07:05:45.516Z,3.93
2019-05-14T07:06:53.001Z,3.80
2019-05-14T07:07:59.887Z,3.80
2019-05-14T07:09:09.275Z,3.47
2019-05-14T07:10:19.450Z,3.57
2019-05-14T07:11:26.010Z,3.30
2019-05-14T07:12:33.064Z,3.30
2019-05-14T07:13:40.943Z,3.03
2019-05-14T07:14:48.241Z,3.00
2019-05-14T07:15:58.335Z,3.27
2019-05-14T07:17:04.914Z,3.43
2019-05-14T07:18:12.393Z,2.63
2019-05-14T07:19:19.336Z,3.40
2019-05-14T07:20:28.306Z,2.70
2019-05-14T07:21:35.433Z,2.53
2019-05-14T07:22:43.484Z,2.30
2019-05-14T07:23:50.339Z,2.80
2019-05-14T07:24:58.673Z,2.87
2019-05-14T07:26:08.126Z,2.97
2019-05-14T07:27:15.226Z,3.03
2019-05-14T07:28:22.283Z,2.43
2019-05-14T07:29:29.778Z,2.80
2019-05-14T07:30:39.325Z,2.70
2019-05-14T07:31:48.740Z,2.70
2019-05-14T07:32:55.003Z,3.10
2019-05-14T07:34:02.573Z,2.77
2019-05-14T07:35:11.240Z,2.90
2019-05-14T07:36:19.411Z,3.20
2019-05-14T07:37:28.434Z,2.90
2019-05-14T07:38:35.671Z,2.90
2019-05-14T07:39:42.776Z,2.30
2019-05-14T07:40:51.123Z,2.30
2019-05-14T07:41:59.127Z,2.30
2019-05-14T07:43:08.988Z,3.13
2019-05-14T07:44:18.198Z,3.10
2019-05-14T07:45:25.708Z,2.47
2019-05-14T07:46:32.740Z,2.57
2019-05-14T07:47:40.258Z,2.60
2019-05-14T07:49:03.982Z,2.80
2019-05-14T07:49:58.238Z,2.50
2019-05-14T07:51:05.217Z,3.03
2019-05-14T07:52:13.045Z,2.23
2019-05-14T07:53:19.766Z,2.77
2019-05-14T07:54:28.301Z,2.60
2019-05-14T07:55:35.307Z,2.60
2019-05-14T07:56:43.603Z,2.17
2019-05-14T07:57:50.668Z,2.00
2019-05-14T07:59:01.930Z,2.10
2019-05-14T08:00:08.168Z,2.30
2019-05-14T08:01:15.751Z,2.50
2019-05-14T08:02:22.543Z,2.13
2019-05-14T08:03:30.402Z,2.00
2019-05-14T08:04:38.116Z,2.00
2019-05-14T08:05:48.228Z,2.37
2019-05-14T08:06:54.991Z,1.87
2019-05-14T08:08:02.793Z,2.80
2019-05-14T08:09:10.900Z,1.90
2019-05-14T08:10:20.041Z,2.20
2019-05-14T08:11:28.092Z,2.23
2019-05-14T08:12:36.012Z,2.37
2019-05-14T08:13:43.072Z,1.50
2019-05-14T08:15:11.030Z,2.10
2019-05-14T08:16:00.015Z,2.87
2019-05-14T08:17:08.644Z,2.40
2019-05-14T08:18:15.635Z,2.53
2019-05-14T08:19:27.127Z,2.80
2019-05-14T08:20:31.609Z,2.07
2019-05-14T08:21:39.617Z,2.40
2019-05-14T08:22:48.839Z,2.27
2019-05-14T08:23:59.121Z,2.40
2019-05-14T08:25:05.150Z,3.03
2019-05-14T08:26:12.941Z,2.20
2019-05-14T08:27:19.712Z,2.80
2019-05-14T08:28:28.993Z,1.93
2019-05-14T08:29:39.117Z,2.50
2019-05-14T08:30:44.906Z,2.60
2019-05-14T08:31:51.684Z,2.50
2019-05-14T08:32:59.262Z,2.33
2019-05-14T08:34:09.029Z,2.47
2019-05-14T08:35:18.414Z,2.33
2019-05-14T08:36:24.511Z,2.30
2019-05-14T08:37:32.532Z,2.10
2019-05-14T08:38:39.631Z,2.00
2019-05-14T08:39:48.602Z,2.40
2019-05-14T08:40:55.663Z,2.00
2019-05-14T08:42:04.400Z,2.37
2019-05-14T08:43:11.483Z,2.00
2019-05-14T08:44:19.867Z,2.23
2019-05-14T08:45:28.373Z,1.93
2019-05-14T08:46:36.129Z,2.27
2019-05-14T08:47:42.976Z,2.13
2019-05-14T08:48:50.455Z,2.10
2019-05-14T08:49:59.949Z,2.30
2019-05-14T08:51:09.117Z,2.80
2019-05-14T08:52:16.229Z,2.20
2019-05-14T08:53:24.106Z,2.30
2019-05-14T08:54:30.838Z,2.60
2019-05-14T08:55:38.473Z,1.63
2019-05-14T08:56:45.225Z,2.03
2019-05-14T08:57:52.754Z,2.10
2019-05-14T08:58:59.539Z,2.23
2019-05-14T09:00:13.673Z,1.80
2019-05-14T09:01:19.405Z,2.30
2019-05-14T09:02:28.497Z,2.30
2019-05-14T09:03:34.494Z,1.80
2019-05-14T09:04:43.774Z,2.40
2019-05-14T09:05:51.297Z,2.90
2019-05-14T09:06:58.796Z,2.17
2019-05-14T09:08:05.961Z,1.70
2019-05-14T09:09:14.098Z,2.10
2019-05-14T09:10:21.124Z,1.90
2019-05-14T09:11:35.411Z,2.03
2019-05-14T09:12:38.889Z,2.13
2019-05-14T09:13:49.057Z,2.00
2019-05-14T09:14:55.690Z,2.10
2019-05-14T09:16:04.080Z,2.40
2019-05-14T09:17:14.659Z,2.30
2019-05-14T09:18:20.703Z,2.13
2019-05-14T09:19:28.730Z,2.40
2019-05-14T09:20:38.144Z,1.23
2019-05-14T09:21:45.014Z,1.63
2019-05-14T09:22:53.240Z,1.70
2019-05-14T09:23:59.981Z,2.20
2019-05-14T09:25:08.495Z,1.97
2019-05-14T09:26:15.379Z,2.03
2019-05-14T09:27:23.453Z,2.50
2019-05-14T09:28:30.564Z,1.93
2019-05-14T09:29:39.468Z,2.40
2019-05-14T09:30:48.702Z,2.80
2019-05-14T09:31:58.903Z,2.50
2019-05-14T09:33:08.538Z,2.27
2019-05-14T09:34:19.442Z,2.43
2019-05-14T09:35:25.656Z,2.37
2019-05-14T09:36:33.225Z,2.07
2019-05-14T09:37:40.081Z,1.90
2019-05-14T09:38:49.148Z,2.30
2019-05-14T09:39:58.420Z,2.30
2019-05-14T09:41:14.217Z,2.33
2019-05-14T09:42:14.158Z,2.20
2019-05-14T09:43:21.620Z,3.10
2019-05-14T09:44:29.407Z,2.10
2019-05-14T09:45:38.811Z,2.90
2019-05-14T09:46:45.671Z,2.30
2019-05-14T09:47:53.148Z,2.30
2019-05-14T09:48:59.893Z,2.23
2019-05-14T09:50:29.248Z,2.20
2019-05-14T09:51:38.135Z,2.63
2019-05-14T09:52:45.981Z,2.47
2019-05-14T09:53:53.084Z,2.00
2019-05-14T09:55:00.956Z,2.20
2019-05-14T09:56:09.123Z,1.70
2019-05-14T09:57:18.908Z,2.17
2019-05-14T09:58:28.011Z,2.20
2019-05-14T09:59:35.159Z,1.80
2019-05-14T10:00:41.879Z,2.20
2019-05-14T10:01:50.694Z,2.37
2019-05-14T10:02:59.657Z,1.93
2019-05-14T10:04:09.189Z,2.03
2019-05-14T10:05:19.485Z,2.40
2019-05-14T10:06:28.430Z,2.93
2019-05-14T10:07:35.858Z,2.10
2019-05-14T10:08:43.741Z,2.30
2019-05-14T10:09:50.471Z,2.83
2019-05-14T10:11:00.258Z,2.63
2019-05-14T10:12:08.912Z,2.10
2019-05-14T10:13:16.454Z,2.13
2019-05-14T10:14:23.194Z,1.90
2019-05-14T10:15:30.661Z,2.20
2019-05-14T10:16:38.668Z,2.50
2019-05-14T10:17:49.797Z,2.27
2019-05-14T10:18:55.124Z,2.40
2019-05-14T10:20:02.596Z,2.10
2019-05-14T10:21:09.696Z,2.50
2019-05-14T10:22:19.780Z,3.00
2019-05-14T10:23:28.153Z,2.20
2019-05-14T10:24:35.334Z,2.40
2019-05-14T10:25:42.597Z,2.17
2019-05-14T10:26:50.288Z,2.10
2019-05-14T10:27:59.040Z,1.90
2019-05-14T10:29:08.520Z,2.00
2019-05-14T10:30:17.979Z,2.57
2019-05-14T10:31:25.062Z,2.30
2019-05-14T10:32:32.238Z,1.80
2019-05-14T10:33:39.814Z,2.50
2019-05-14T10:34:48.548Z,2.40
2019-05-14T10:35:58.744Z,2.00
2019-05-14T10:37:04.989Z,2.27
2019-05-14T10:38:13.204Z,2.13
2019-05-14T10:39:20.657Z,2.10
2019-05-14T10:40:29.220Z,1.90
2019-05-14T10:41:38.519Z,2.60
2019-05-14T10:42:49.227Z,2.50
2019-05-14T10:43:54.582Z,1.97
2019-05-14T10:45:02.194Z,2.30
2019-05-14T10:46:09.289Z,2.17
2019-05-14T10:47:18.830Z,2.50
2019-05-14T10:48:25.575Z,2.57
2019-05-14T10:49:33.540Z,2.50
2019-05-14T10:50:56.130Z,2.43
2019-05-14T10:51:49.931Z,2.20
2019-05-14T10:52:59.850Z,2.37
2019-05-14T10:54:21.240Z,2.57
2019-05-14T10:55:18.419Z,2.20
2019-05-14T10:56:26.076Z,2.27
2019-05-14T10:57:32.815Z,2.43
2019-05-14T10:58:40.350Z,2.40
2019-05-14T10:59:47.194Z,2.60
2019-05-14T11:00:55.090Z,2.40
2019-05-14T11:02:02.158Z,1.93
2019-05-14T11:03:09.649Z,3.00
2019-05-14T11:04:18.822Z,2.10
2019-05-14T11:05:27.997Z,2.27
2019-05-14T11:06:34.637Z,2.27
2019-05-14T11:07:42.489Z,2.80
2019-05-14T11:08:49.560Z,2.60
2019-05-14T11:09:57.096Z,1.90
2019-05-14T11:11:05.123Z,2.33
2019-05-14T11:12:13.073Z,1.90
2019-05-14T11:13:20.245Z,2.57
2019-05-14T11:14:31.822Z,2.40
2019-05-14T11:15:39.266Z,2.20
2019-05-14T11:16:45.734Z,2.53
2019-05-14T11:17:52.473Z,3.27
2019-05-14T11:18:59.955Z,2.20
2019-05-14T11:20:09.061Z,2.70
2019-05-14T11:21:23.055Z,2.17
2019-05-14T11:22:25.357Z,2.20
2019-05-14T11:23:33.167Z,2.00
2019-05-14T11:24:40.021Z,2.07
2019-05-14T11:25:48.714Z,2.30
2019-05-14T11:26:55.687Z,2.03
2019-05-14T11:28:03.625Z,2.20
2019-05-14T11:29:10.701Z,1.93
2019-05-14T11:30:19.461Z,2.27
2019-05-14T11:31:26.311Z,2.40
2019-05-14T11:32:34.616Z,2.27
2019-05-14T11:33:41.319Z,1.90
2019-05-14T11:34:48.878Z,1.93
2019-05-14T11:35:58.324Z,2.07
2019-05-14T11:37:08.371Z,2.17
2019-05-14T11:38:28.359Z,2.30
2019-05-14T11:39:23.927Z,1.90
2019-05-14T11:40:30.645Z,2.37
2019-05-14T11:41:39.062Z,2.90
2019-05-14T11:42:49.296Z,2.47
2019-05-14T11:43:55.750Z,2.10
2019-05-14T11:45:02.489Z,2.23
2019-05-14T11:46:10.093Z,2.00
2019-05-14T11:47:18.159Z,2.07
2019-05-14T11:48:25.738Z,2.30
2019-05-14T11:49:32.705Z,2.10
2019-05-14T11:50:40.393Z,2.50
2019-05-14T11:52:00.919Z,2.30
2019-05-14T11:52:58.538Z,2.50
2019-05-14T11:54:09.247Z,2.30
2019-05-14T11:55:18.647Z,2.00
2019-05-14T11:56:24.867Z,2.50
2019-05-14T11:57:32.335Z,2.33
2019-05-14T11:58:39.520Z,2.37
2019-05-14T11:59:46.987Z,2.40
2019-05-14T12:00:53.807Z,2.60
2019-05-14T12:02:01.295Z,2.70
2019-05-14T12:03:09.222Z,2.53
2019-05-14T12:04:18.818Z,2.43
2019-05-14T12:05:25.821Z,2.87
2019-05-14T12:06:33.777Z,2.70
2019-05-14T12:07:40.544Z,2.33
2019-05-14T12:08:48.038Z,2.57
2019-05-14T12:09:55.104Z,2.70
2019-05-14T12:11:02.601Z,2.00
2019-05-14T12:12:12.345Z,3.40
2019-05-14T12:13:19.455Z,2.37
2019-05-14T12:14:26.305Z,2.73
2019-05-14T12:15:34.020Z,3.13
2019-05-14T12:16:40.903Z,2.93
2019-05-14T12:17:51.037Z,2.70
2019-05-14T12:18:59.073Z,2.50
2019-05-14T12:20:06.705Z,2.33
2019-05-14T12:21:13.459Z,2.50
2019-05-14T12:22:21.062Z,2.20
2019-05-14T12:23:29.824Z,2.50
2019-05-14T12:24:38.790Z,1.90
2019-05-14T12:25:48.897Z,2.60
2019-05-14T12:26:55.362Z,2.33
2019-05-14T12:28:02.177Z,1.77
2019-05-14T12:29:10.142Z,2.10
2019-05-14T12:30:19.693Z,2.13
2019-05-14T12:31:28.967Z,1.80
2019-05-14T12:32:39.191Z,1.93
2019-05-14T12:33:45.665Z,2.70
2019-05-14T12:34:53.115Z,2.40
2019-05-14T12:36:00.819Z,2.10
2019-05-14T12:37:09.130Z,2.50
2019-05-14T12:38:18.759Z,2.03
2019-05-14T12:39:25.756Z,1.80
2019-05-14T12:40:33.289Z,2.20
2019-05-14T12:41:40.024Z,2.40
2019-05-14T12:42:49.616Z,1.67
2019-05-14T12:43:58.796Z,2.10
2019-05-14T12:45:06.099Z,2.17
2019-05-14T12:46:13.247Z,2.47
2019-05-14T12:47:20.760Z,2.07
2019-05-14T12:48:29.792Z,2.73
2019-05-14T12:49:38.901Z,2.50
2019-05-14T12:50:48.656Z,2.00
2019-05-14T12:51:55.041Z,2.50
2019-05-14T12:53:02.181Z,3.93
2019-05-14T12:54:09.674Z,3.10
2019-05-14T12:55:19.786Z,2.10
2019-05-14T12:56:29.436Z,2.60
2019-05-14T12:57:39.025Z,3.47
2019-05-14T12:58:46.044Z,2.60
2019-05-14T12:59:53.066Z,2.53
2019-05-14T13:01:01.246Z,2.37
2019-05-14T13:02:09.715Z,2.20
2019-05-14T13:03:19.078Z,2.50
2019-05-14T13:04:28.427Z,2.60
2019-05-14T13:05:35.564Z,1.90
2019-05-14T13:06:43.175Z,2.37
2019-05-14T13:07:51.300Z,1.80
2019-05-14T13:08:58.640Z,2.20
2019-05-14T13:10:08.982Z,2.53
2019-05-14T13:11:15.707Z,3.10
2019-05-14T13:12:23.222Z,3.10
2019-05-14T13:13:30.377Z,2.10
2019-05-14T13:14:39.539Z,2.20
2019-05-14T13:15:48.418Z,2.40
2019-05-14T13:16:56.211Z,2.30
2019-05-14T13:18:02.929Z,2.13
2019-05-14T13:19:10.841Z,2.30
2019-05-14T13:20:18.674Z,2.10
2019-05-14T13:21:28.765Z,1.93
2019-05-14T13:22:42.406Z,2.07
2019-05-14T13:23:44.754Z,2.40
2019-05-14T13:24:51.496Z,2.67
2019-05-14T13:25:59.611Z,2.10
2019-05-14T13:27:06.428Z,2.50
2019-05-14T13:28:14.363Z,1.80
2019-05-14T13:29:21.824Z,2.40
2019-05-14T13:30:29.944Z,2.20
2019-05-14T13:31:36.918Z,2.07
2019-05-14T13:32:44.462Z,2.00
2019-05-14T13:33:52.014Z,2.03
2019-05-14T13:35:00.216Z,2.23
2019-05-14T13:36:07.178Z,1.90
2019-05-14T13:37:14.989Z,2.33
2019-05-14T13:38:21.845Z,1.70
2019-05-14T13:39:29.299Z,1.80
2019-05-14T13:40:36.069Z,1.80
2019-05-14T13:41:43.683Z,2.47
2019-05-14T13:42:50.428Z,1.67
2019-05-14T13:43:58.712Z,1.50
2019-05-14T13:45:06.437Z,1.80
2019-05-14T13:46:15.205Z,1.90
2019-05-14T13:47:22.239Z,1.80
2019-05-14T13:48:30.134Z,1.93
2019-05-14T13:49:39.072Z,1.77
2019-05-14T13:50:48.966Z,2.40
2019-05-14T13:51:54.582Z,2.17
2019-05-14T13:53:09.407Z,1.90
2019-05-14T13:54:11.708Z,2.10
2019-05-14T13:55:19.672Z,2.13
2019-05-14T13:56:28.373Z,2.77
2019-05-14T13:57:39.485Z,2.53
2019-05-14T13:58:45.314Z,2.40
2019-05-14T13:59:52.790Z,2.77
2019-05-14T14:00:59.725Z,2.10
2019-05-14T14:02:09.857Z,2.37
2019-05-14T14:03:19.658Z,1.97
2019-05-14T14:04:25.531Z,1.80
2019-05-14T14:05:32.279Z,2.27
2019-05-14T14:06:40.568Z,1.80
2019-05-14T14:07:48.628Z,1.70
2019-05-14T14:08:59.105Z,2.50
2019-05-14T14:10:05.445Z,2.20
2019-05-14T14:11:13.057Z,2.33
2019-05-14T14:12:20.288Z,2.30
2019-05-14T14:13:28.567Z,1.90
2019-05-14T14:14:38.594Z,2.13
2019-05-14T14:15:45.837Z,2.07
2019-05-14T14:16:52.556Z,1.43
2019-05-14T14:18:00.726Z,2.10
2019-05-14T14:19:08.742Z,1.73
2019-05-14T14:20:19.343Z,2.30
2019-05-14T14:21:25.559Z,2.03
2019-05-14T14:22:33.167Z,2.60
2019-05-14T14:23:39.979Z,2.30
2019-05-14T14:24:48.709Z,2.77
2019-05-14T14:25:59.289Z,2.07
2019-05-14T14:27:05.305Z,2.27
2019-05-14T14:28:12.420Z,2.27
2019-05-14T14:29:20.220Z,2.27
2019-05-14T14:30:28.533Z,1.93
2019-05-14T14:31:36.537Z,2.50
2019-05-14T14:32:43.330Z,2.73
2019-05-14T14:33:51.128Z,2.20
2019-05-14T14:34:58.969Z,2.50
2019-05-14T14:36:07.190Z,2.40
2019-05-14T14:37:14.130Z,2.17
2019-05-14T14:38:21.955Z,1.93
2019-05-14T14:39:28.764Z,2.30
2019-05-14T14:40:39.368Z,2.20
2019-05-14T14:41:45.341Z,2.30
2019-05-14T14:42:53.240Z,1.97
2019-05-14T14:44:00.344Z,1.67
2019-05-14T14:45:08.834Z,2.00
2019-05-14T14:46:16.021Z,2.43
2019-05-14T14:47:23.753Z,2.37
2019-05-14T14:48:30.739Z,2.70
2019-05-14T14:49:43.185Z,2.20
2019-05-14T14:50:49.847Z,2.87
2019-05-14T14:51:58.965Z,2.60
2019-05-14T14:53:08.999Z,2.17
2019-05-14T14:54:16.342Z,2.60
2019-05-14T14:55:24.101Z,2.23
2019-05-14T14:56:31.605Z,2.63
2019-05-14T14:57:44.787Z,2.70
2019-05-14T14:58:49.418Z,2.40
2019-05-14T14:59:56.753Z,2.03
2019-05-14T15:01:04.285Z,2.20
2019-05-14T15:02:11.058Z,2.37
2019-05-14T15:03:21.296Z,2.20
2019-05-14T15:04:28.471Z,2.47
2019-05-14T15:05:38.953Z,2.33
2019-05-14T15:06:45.110Z,2.00
2019-05-14T15:07:52.591Z,2.90